Time;durP1;ratioP1;P1;durP2;ratioP2;P2;SDS_P1;SDS_P2;PMS_P1;PMS_P2;Temp;Humidity;BMP_temperature;BMP_pressure;BME280_temperature;BME280_humidity;BME280_pressure;Samples;Min_cycle;Max_cycle;Signal;HPM_P1;HPM_P2
2023/04/24 00:01:19;;;;;;;;;;;11.80;99.90;;;;;;5076504;28;19946;-76
2023/04/24 00:03:44;;;;;;;;;;;11.70;99.90;;;;;;5086926;28;19924;-76
2023/04/24 00:06:10;;;;;;;;;;;11.80;99.90;;;;;;5069413;28;20331;-76
2023/04/24 00:08:36;;;;;;;;;;;11.80;99.90;;;;;;5082174;28;20354;-76
2023/04/24 00:11:01;;;;;;;;;;;11.70;99.90;;;;;;5070075;28;20011;-76
2023/04/24 00:13:28;;;;;;;;;;;11.70;99.90;;;;;;5087565;28;19924;-76
2023/04/24 00:15:54;;;;;;;;;;;11.70;99.90;;;;;;5067707;28;19959;-75
2023/04/24 00:18:19;;;;;;;;;;;11.70;99.90;;;;;;5086437;28;19964;-76
2023/04/24 00:20:46;;;;;;;;;;;11.70;99.90;;;;;;5085636;28;19931;-76
2023/04/24 00:23:12;;;;;;;;;;;11.70;99.90;;;;;;5084437;28;20283;-76
2023/04/24 00:25:38;;;;;;;;;;;11.70;99.90;;;;;;5066869;28;19932;-76
2023/04/24 00:28:04;;;;;;;;;;;11.70;99.90;;;;;;5085806;28;19931;-76
2023/04/24 00:30:29;;;;;;;;;;;11.70;99.90;;;;;;5085206;28;19931;-76
2023/04/24 00:32:55;;;;;;;;;;;11.70;99.90;;;;;;5084912;28;19975;-76
2023/04/24 00:35:20;;;;;;;;;;;11.70;99.90;;;;;;5068535;28;20428;-76
2023/04/24 00:37:46;;;;;;;;;;;11.60;99.90;;;;;;5085598;28;20047;-76
2023/04/24 00:40:12;;;;;;;;;;;11.60;99.90;;;;;;5069191;28;20059;-76
2023/04/24 00:42:38;;;;;;;;;;;11.60;99.90;;;;;;5095684;28;19924;-76
2023/04/24 00:45:03;;;;;;;;;;;11.60;99.90;;;;;;5081309;28;19924;-76
2023/04/24 00:47:29;;;;;;;;;;;11.50;99.90;;;;;;5064964;28;19978;-76
2023/04/24 00:49:55;;;;;;;;;;;11.50;99.90;;;;;;5060227;28;19924;-76
2023/04/24 00:52:24;;;;;;;;;;;11.40;99.90;;;;;;5069227;28;19924;-76
2023/04/24 00:54:49;;;;;;;;;;;11.40;99.90;;;;;;5059710;28;19924;-76
2023/04/24 00:57:15;;;;;;;;;;;11.40;99.90;;;;;;5068389;28;19985;-76
2023/04/24 00:59:41;;;;;;;;;;;11.30;99.90;;;;;;5070004;28;20381;-76
2023/04/24 01:02:07;;;;;;;;;;;11.30;99.90;;;;;;5086718;28;19924;-76
2023/04/24 01:04:33;;;;;;;;;;;11.30;99.90;;;;;;5069202;28;20439;-76
2023/04/24 01:06:58;;;;;;;;;;;11.30;99.90;;;;;;5069181;28;19931;-76
2023/04/24 01:09:24;;;;;;;;;;;11.20;99.90;;;;;;5067952;28;19935;-76
2023/04/24 01:11:50;;;;;;;;;;;11.20;99.90;;;;;;5054143;28;20472;-76
2023/04/24 01:14:16;;;;;;;;;;;11.20;99.90;;;;;;5085043;28;19924;-76
2023/04/24 01:16:41;;;;;;;;;;;11.10;99.90;;;;;;5055922;28;19981;-76
2023/04/24 01:19:07;;;;;;;;;;;11.10;99.90;;;;;;5069768;28;19951;-76
2023/04/24 01:21:36;;;;;;;;;;;11.10;99.90;;;;;;5066491;28;19971;-76
2023/04/24 01:24:02;;;;;;;;;;;11.10;99.90;;;;;;5071318;28;19928;-76
2023/04/24 01:26:27;;;;;;;;;;;11.00;99.90;;;;;;5062518;28;20646;-76
2023/04/24 01:28:53;;;;;;;;;;;11.00;99.90;;;;;;5067334;28;19975;-76
2023/04/24 01:31:19;;;;;;;;;;;11.00;99.90;;;;;;5081059;28;19924;-76
2023/04/24 01:33:45;;;;;;;;;;;10.90;99.90;;;;;;5065517;28;19978;-76
2023/04/24 01:36:11;;;;;;;;;;;11.00;99.90;;;;;;5086584;28;19970;-76
2023/04/24 01:38:36;;;;;;;;;;;10.90;99.90;;;;;;5083677;28;19969;-76
2023/04/24 01:41:02;;;;;;;;;;;10.90;99.90;;;;;;5080367;28;19971;-76
2023/04/24 01:43:28;;;;;;;;;;;10.80;99.90;;;;;;5062055;28;19924;-76
2023/04/24 01:45:54;;;;;;;;;;;10.80;99.90;;;;;;5068145;28;19932;-76
2023/04/24 01:48:19;;;;;;;;;;;10.80;99.90;;;;;;5069581;28;20011;-76
2023/04/24 01:50:45;;;;;;;;;;;10.80;99.90;;;;;;5067878;28;19924;-76
2023/04/24 01:53:11;;;;;;;;;;;10.70;99.90;;;;;;5076025;28;19928;-76
2023/04/24 01:55:36;;;;;;;;;;;10.80;99.90;;;;;;5085186;28;20378;-76
2023/04/24 01:58:02;;;;;;;;;;;10.70;99.90;;;;;;5069566;28;19935;-76
2023/04/24 02:00:27;;;;;;;;;;;10.70;99.90;;;;;;5067501;28;19998;-76
2023/04/24 02:02:53;;;;;;;;;;;10.70;99.90;;;;;;5102509;28;20301;-76
2023/04/24 02:05:19;;;;;;;;;;;10.70;99.90;;;;;;5084065;28;20025;-76
2023/04/24 02:07:44;;;;;;;;;;;10.70;99.90;;;;;;5086670;28;19931;-76
2023/04/24 02:10:10;;;;;;;;;;;10.60;99.90;;;;;;5065700;28;19924;-76
2023/04/24 02:12:36;;;;;;;;;;;10.70;99.90;;;;;;5092019;28;19931;-76
2023/04/24 02:15:01;;;;;;;;;;;10.60;99.90;;;;;;5079667;28;19955;-76
2023/04/24 02:17:27;;;;;;;;;;;10.60;99.90;;;;;;5060952;28;19978;-76
2023/04/24 02:19:52;;;;;;;;;;;10.60;99.90;;;;;;5085536;28;20014;-76
2023/04/24 02:22:18;;;;;;;;;;;10.60;99.90;;;;;;5087222;28;20013;-76
2023/04/24 02:24:43;;;;;;;;;;;10.60;99.90;;;;;;5088221;28;19977;-76
2023/04/24 02:27:09;;;;;;;;;;;10.60;99.90;;;;;;5076807;28;20011;-76
2023/04/24 02:29:35;;;;;;;;;;;10.60;99.90;;;;;;5082648;28;20338;-76
2023/04/24 02:32:00;;;;;;;;;;;10.60;99.90;;;;;;5068549;28;19935;-76
2023/04/24 02:34:26;;;;;;;;;;;10.60;99.90;;;;;;5083515;28;20413;-76
2023/04/24 02:36:53;;;;;;;;;;;10.60;99.90;;;;;;5085752;28;19935;-76
2023/04/24 02:39:19;;;;;;;;;;;10.60;99.90;;;;;;5065293;28;19985;-76
2023/04/24 02:41:44;;;;;;;;;;;10.60;99.90;;;;;;5101688;28;20337;-76
2023/04/24 02:44:10;;;;;;;;;;;10.60;99.90;;;;;;5065581;28;20011;-76
2023/04/24 02:46:35;;;;;;;;;;;10.60;99.90;;;;;;5102228;28;19960;-76
2023/04/24 02:49:01;;;;;;;;;;;10.60;99.90;;;;;;5065688;28;19928;-76
2023/04/24 02:51:26;;;;;;;;;;;10.60;99.90;;;;;;5085941;28;19931;-76
2023/04/24 02:53:52;;;;;;;;;;;10.60;99.90;;;;;;5083198;28;19994;-76
2023/04/24 02:56:18;;;;;;;;;;;10.60;99.90;;;;;;5085324;28;20371;-76
2023/04/24 02:58:43;;;;;;;;;;;10.60;99.90;;;;;;5081967;28;20727;-76
2023/04/24 03:01:11;;;;;;;;;;;10.60;99.90;;;;;;5085549;28;19931;-76
2023/04/24 03:03:38;;;;;;;;;;;10.60;99.90;;;;;;5062033;28;19931;-76
2023/04/24 03:06:05;;;;;;;;;;;10.60;99.90;;;;;;5071645;28;19924;-76
2023/04/24 03:08:31;;;;;;;;;;;10.60;99.90;;;;;;5084660;28;19925;-76
2023/04/24 03:10:57;;;;;;;;;;;10.60;99.90;;;;;;5087946;28;20381;-76
2023/04/24 03:13:22;;;;;;;;;;;10.60;99.90;;;;;;5084104;28;19925;-75
2023/04/24 03:15:48;;;;;;;;;;;10.70;99.90;;;;;;5061085;28;20011;-76
2023/04/24 03:18:13;;;;;;;;;;;10.70;99.90;;;;;;5069060;28;20952;-76
2023/04/24 03:20:39;;;;;;;;;;;10.70;99.90;;;;;;5090117;28;19931;-76
2023/04/24 03:23:05;;;;;;;;;;;10.60;99.90;;;;;;5088769;28;19928;-76
2023/04/24 03:25:30;;;;;;;;;;;10.70;99.90;;;;;;5090741;28;19923;-76
2023/04/24 03:27:56;;;;;;;;;;;10.70;99.90;;;;;;5089091;28;19934;-76
2023/04/24 03:30:21;;;;;;;;;;;10.70;99.90;;;;;;5090265;28;19924;-76
2023/04/24 03:32:47;;;;;;;;;;;10.60;99.90;;;;;;5070720;28;19935;-76
2023/04/24 03:35:12;;;;;;;;;;;10.70;99.90;;;;;;5089835;28;19932;-76
2023/04/24 03:37:38;;;;;;;;;;;10.60;99.90;;;;;;5088549;28;20293;-76
2023/04/24 03:40:05;;;;;;;;;;;10.70;99.90;;;;;;5080017;28;20440;-76
2023/04/24 03:42:31;;;;;;;;;;;10.70;99.90;;;;;;5086222;28;20286;-76
2023/04/24 03:44:56;;;;;;;;;;;10.70;99.90;;;;;;5105629;28;20043;-76
2023/04/24 03:47:22;;;;;;;;;;;10.70;99.90;;;;;;5087532;28;19971;-76
2023/04/24 03:49:47;;;;;;;;;;;10.70;99.90;;;;;;5090580;28;19959;-76
2023/04/24 03:52:13;;;;;;;;;;;10.70;99.90;;;;;;5089432;28;20393;-76
2023/04/24 03:54:38;;;;;;;;;;;10.70;99.90;;;;;;5071886;28;19980;-76
2023/04/24 03:57:04;;;;;;;;;;;10.70;99.90;;;;;;5069233;28;20366;-75
2023/04/24 03:59:30;;;;;;;;;;;10.70;99.90;;;;;;5089441;28;19924;-76
2023/04/24 04:01:55;;;;;;;;;;;10.70;99.90;;;;;;5068650;28;19970;-76
2023/04/24 04:04:21;;;;;;;;;;;10.70;99.90;;;;;;5089222;28;19974;-76
2023/04/24 04:06:47;;;;;;;;;;;10.70;99.90;;;;;;5049778;28;19999;-76
2023/04/24 04:09:12;;;;;;;;;;;10.70;99.90;;;;;;5087727;28;19927;-76
2023/04/24 04:11:38;;;;;;;;;;;10.60;99.90;;;;;;5066271;28;19948;-76
2023/04/24 04:14:03;;;;;;;;;;;10.60;99.90;;;;;;5069383;28;19955;-76
2023/04/24 04:16:29;;;;;;;;;;;10.70;99.90;;;;;;5073290;28;19981;-76
2023/04/24 04:18:55;;;;;;;;;;;10.70;99.90;;;;;;5079823;28;20724;-76
2023/04/24 04:21:20;;;;;;;;;;;10.60;99.90;;;;;;5069920;28;20397;-76
2023/04/24 04:23:46;;;;;;;;;;;10.60;99.90;;;;;;5071529;28;19931;-76
2023/04/24 04:26:12;;;;;;;;;;;10.60;99.90;;;;;;5058152;28;20291;-76
2023/04/24 04:28:38;;;;;;;;;;;10.50;99.90;;;;;;5071905;28;19947;-76
2023/04/24 04:31:04;;;;;;;;;;;10.50;99.90;;;;;;5101797;28;20288;-76
2023/04/24 04:33:30;;;;;;;;;;;10.50;99.90;;;;;;5088552;28;20022;-76
2023/04/24 04:35:56;;;;;;;;;;;10.50;99.90;;;;;;5086405;28;19932;-76
2023/04/24 04:38:22;;;;;;;;;;;10.50;99.90;;;;;;5087372;28;19928;-76
2023/04/24 04:40:48;;;;;;;;;;;10.50;99.90;;;;;;5085914;28;20036;-76
2023/04/24 04:43:14;;;;;;;;;;;10.50;99.90;;;;;;5088317;28;19935;-76
2023/04/24 04:45:41;;;;;;;;;;;10.50;99.90;;;;;;5086311;28;20280;-76
2023/04/24 04:48:08;;;;;;;;;;;10.50;99.90;;;;;;5095508;28;19925;-76
2023/04/24 04:50:34;;;;;;;;;;;10.50;99.90;;;;;;5081481;28;19967;-76
2023/04/24 04:53:00;;;;;;;;;;;10.40;99.90;;;;;;5061194;28;20023;-76
2023/04/24 04:55:25;;;;;;;;;;;10.50;99.90;;;;;;5086443;28;20049;-75
2023/04/24 04:57:51;;;;;;;;;;;10.40;99.90;;;;;;5080107;28;20353;-76
2023/04/24 05:00:17;;;;;;;;;;;10.40;99.90;;;;;;5081484;28;20083;-76
2023/04/24 05:02:42;;;;;;;;;;;10.40;99.90;;;;;;5068523;28;19932;-76
2023/04/24 05:05:08;;;;;;;;;;;10.40;99.90;;;;;;5083187;28;19931;-76
2023/04/24 05:07:34;;;;;;;;;;;10.40;99.90;;;;;;5088710;28;20006;-76
2023/04/24 05:10:00;;;;;;;;;;;10.40;99.90;;;;;;5085647;28;19928;-76
2023/04/24 05:12:25;;;;;;;;;;;10.40;99.90;;;;;;5087984;28;20306;-76
2023/04/24 05:14:51;;;;;;;;;;;10.30;99.90;;;;;;5084033;28;20043;-76
2023/04/24 05:17:17;;;;;;;;;;;10.30;99.90;;;;;;5061154;28;20446;-76
2023/04/24 05:19:42;;;;;;;;;;;10.40;99.90;;;;;;5087284;28;19929;-76
2023/04/24 05:22:09;;;;;;;;;;;10.30;99.90;;;;;;5079250;28;19932;-76
2023/04/24 05:24:35;;;;;;;;;;;10.30;99.90;;;;;;5065170;28;19924;-76
2023/04/24 05:27:02;;;;;;;;;;;10.30;99.90;;;;;;5069571;28;20442;-76
2023/04/24 05:29:27;;;;;;;;;;;10.30;99.90;;;;;;5086822;28;19925;-76
2023/04/24 05:31:53;;;;;;;;;;;10.30;99.90;;;;;;5069955;28;19928;-76
2023/04/24 05:34:18;;;;;;;;;;;10.30;99.90;;;;;;5102449;28;19932;-76
2023/04/24 05:36:44;;;;;;;;;;;10.30;99.90;;;;;;5053601;28;19924;-76
2023/04/24 05:39:10;;;;;;;;;;;10.30;99.90;;;;;;5068279;28;19931;-76
2023/04/24 05:41:35;;;;;;;;;;;10.20;99.90;;;;;;5087788;28;19931;-75
2023/04/24 05:44:01;;;;;;;;;;;10.20;99.90;;;;;;5089917;28;19936;-76
2023/04/24 05:46:26;;;;;;;;;;;10.30;99.90;;;;;;5069782;28;20390;-76
2023/04/24 05:48:52;;;;;;;;;;;10.20;99.90;;;;;;5056378;28;19935;-72
2023/04/24 05:51:17;;;;;;;;;;;10.20;99.90;;;;;;5095066;28;19925;-73
2023/04/24 05:53:43;;;;;;;;;;;10.20;99.90;;;;;;5069354;28;19931;-73
2023/04/24 05:56:08;;;;;;;;;;;10.30;99.90;;;;;;5044234;28;20015;-74
2023/04/24 05:58:34;;;;;;;;;;;10.30;99.90;;;;;;5050880;28;19959;-73
2023/04/24 06:01:01;;;;;;;;;;;10.30;99.90;;;;;;5092592;28;20329;-74
2023/04/24 06:03:27;;;;;;;;;;;10.30;99.90;;;;;;5064756;28;19978;-74
2023/04/24 06:05:53;;;;;;;;;;;10.30;99.90;;;;;;5069220;28;20701;-75
2023/04/24 06:08:18;;;;;;;;;;;10.40;99.90;;;;;;5067170;28;19956;-74
2023/04/24 06:10:44;;;;;;;;;;;10.30;99.90;;;;;;5087706;28;19931;-74
2023/04/24 06:13:11;;;;;;;;;;;10.40;99.90;;;;;;5056136;28;19997;-74
2023/04/24 06:15:36;;;;;;;;;;;10.40;99.90;;;;;;5061225;28;20397;-74
2023/04/24 06:18:02;;;;;;;;;;;10.40;99.90;;;;;;5081401;28;19929;-75
2023/04/24 06:20:28;;;;;;;;;;;10.40;99.90;;;;;;5051339;28;20448;-75
2023/04/24 06:22:53;;;;;;;;;;;10.40;99.90;;;;;;5065020;28;19932;-75
2023/04/24 06:25:19;;;;;;;;;;;10.50;99.90;;;;;;5103846;28;19927;-75
2023/04/24 06:27:45;;;;;;;;;;;10.60;99.90;;;;;;5040492;28;19924;-76
2023/04/24 06:30:10;;;;;;;;;;;10.60;99.90;;;;;;5088374;28;19967;-75
2023/04/24 06:32:36;;;;;;;;;;;10.60;99.90;;;;;;5086412;28;19925;-76
2023/04/24 06:35:02;;;;;;;;;;;10.70;99.90;;;;;;5069852;28;19924;-76
2023/04/24 06:37:27;;;;;;;;;;;10.70;99.90;;;;;;5068456;28;19924;-76
2023/04/24 06:39:53;;;;;;;;;;;10.80;99.90;;;;;;5091670;28;19924;-75
2023/04/24 06:42:20;;;;;;;;;;;10.80;99.90;;;;;;5090700;28;19924;-75
2023/04/24 06:44:46;;;;;;;;;;;10.80;99.90;;;;;;5074028;28;20010;-76
2023/04/24 06:47:13;;;;;;;;;;;10.90;99.90;;;;;;5071504;28;20309;-76
2023/04/24 06:49:39;;;;;;;;;;;10.90;99.90;;;;;;5073826;28;19931;-76
2023/04/24 06:52:05;;;;;;;;;;;10.90;99.90;;;;;;5072068;28;19940;-75
2023/04/24 06:54:30;;;;;;;;;;;10.80;99.90;;;;;;5073535;28;19924;-75
2023/04/24 06:56:57;;;;;;;;;;;10.90;99.90;;;;;;5055093;28;20299;-74
2023/04/24 06:59:23;;;;;;;;;;;10.90;99.90;;;;;;5091568;28;20012;-74
2023/04/24 07:01:49;;;;;;;;;;;10.90;99.90;;;;;;5088974;28;19931;-75
2023/04/24 07:04:14;;;;;;;;;;;10.90;99.90;;;;;;5090199;28;19928;-74
2023/04/24 07:06:40;;;;;;;;;;;11.00;99.90;;;;;;5086077;28;19966;-75
2023/04/24 07:09:05;;;;;;;;;;;11.00;99.90;;;;;;5082386;28;19928;-74
2023/04/24 07:11:31;;;;;;;;;;;11.00;99.90;;;;;;5082078;28;19925;-74
2023/04/24 07:13:56;;;;;;;;;;;11.10;99.90;;;;;;5070144;28;19924;-75
2023/04/24 07:16:22;;;;;;;;;;;11.10;99.90;;;;;;5076721;28;19928;-75
2023/04/24 07:18:47;;;;;;;;;;;11.10;99.90;;;;;;5089712;28;20015;-74
2023/04/24 07:21:13;;;;;;;;;;;11.10;99.90;;;;;;5105484;28;20014;-74
2023/04/24 07:23:41;;;;;;;;;;;11.10;99.90;;;;;;5073662;28;20290;-74
2023/04/24 07:26:06;;;;;;;;;;;11.10;99.90;;;;;;5088147;28;20867;-74
2023/04/24 07:28:32;;;;;;;;;;;11.10;99.90;;;;;;5090678;28;19928;-74
2023/04/24 07:30:58;;;;;;;;;;;11.10;99.90;;;;;;5069780;28;19924;-74
2023/04/24 07:33:24;;;;;;;;;;;11.10;99.90;;;;;;5071653;28;19928;-75
2023/04/24 07:35:49;;;;;;;;;;;11.00;99.90;;;;;;5052609;28;20295;-74
2023/04/24 07:38:15;;;;;;;;;;;11.00;99.90;;;;;;5071808;28;19928;-75
2023/04/24 07:40:40;;;;;;;;;;;11.00;99.90;;;;;;5102713;28;20306;-75
2023/04/24 07:43:06;;;;;;;;;;;11.00;99.90;;;;;;5069857;28;20388;-75
2023/04/24 07:45:33;;;;;;;;;;;11.00;99.90;;;;;;5085938;28;20355;-75
2023/04/24 07:47:59;;;;;;;;;;;11.10;99.90;;;;;;5070134;28;19928;-75
2023/04/24 07:50:24;;;;;;;;;;;11.10;99.90;;;;;;5084844;28;20294;-75
2023/04/24 07:52:50;;;;;;;;;;;11.10;99.90;;;;;;5087797;28;20378;-75
2023/04/24 07:55:15;;;;;;;;;;;11.00;99.90;;;;;;5085373;28;20426;-75
2023/04/24 07:57:41;;;;;;;;;;;11.00;99.90;;;;;;5070470;28;19924;-75
2023/04/24 08:00:06;;;;;;;;;;;11.00;99.90;;;;;;5096787;28;19970;-75
2023/04/24 08:02:32;;;;;;;;;;;10.90;99.90;;;;;;5069768;28;19928;-75
2023/04/24 08:04:58;;;;;;;;;;;10.90;99.90;;;;;;5084942;28;20403;-75
2023/04/24 08:07:23;;;;;;;;;;;10.80;99.90;;;;;;5070168;28;19930;-75
2023/04/24 08:09:49;;;;;;;;;;;10.80;99.90;;;;;;5081616;28;19936;-74
2023/04/24 08:12:15;;;;;;;;;;;10.70;99.90;;;;;;5059210;28;19928;-75
2023/04/24 08:14:40;;;;;;;;;;;10.60;99.90;;;;;;5048517;28;19924;-74
2023/04/24 08:17:06;;;;;;;;;;;10.60;99.90;;;;;;5069552;28;19928;-75
2023/04/24 08:19:31;;;;;;;;;;;10.60;99.90;;;;;;5098973;28;19978;-75
2023/04/24 08:21:57;;;;;;;;;;;10.60;99.90;;;;;;5088213;28;20439;-75
2023/04/24 08:24:22;;;;;;;;;;;10.50;99.90;;;;;;5087215;28;19924;-74
2023/04/24 08:26:52;;;;;;;;;;;10.50;99.90;;;;;;5070089;28;19924;-75
2023/04/24 08:29:17;;;;;;;;;;;10.50;99.90;;;;;;5068599;28;20015;-75
2023/04/24 08:31:43;;;;;;;;;;;10.40;99.90;;;;;;5059426;28;20039;-75
2023/04/24 08:34:09;;;;;;;;;;;10.40;99.90;;;;;;5090879;28;19925;-75
2023/04/24 08:36:34;;;;;;;;;;;10.40;99.90;;;;;;5067993;28;19924;-75
2023/04/24 08:39:00;;;;;;;;;;;10.30;99.90;;;;;;5066966;28;20348;-75
2023/04/24 08:41:26;;;;;;;;;;;10.30;99.90;;;;;;5085859;28;19931;-75
2023/04/24 08:43:52;;;;;;;;;;;10.30;99.90;;;;;;5066446;28;20394;-75
2023/04/24 08:46:18;;;;;;;;;;;10.30;99.90;;;;;;5051296;28;19935;-77
2023/04/24 08:48:43;;;;;;;;;;;10.20;99.90;;;;;;5066854;28;20014;-75
2023/04/24 08:51:09;;;;;;;;;;;10.20;99.90;;;;;;5068515;28;19931;-75
2023/04/24 08:53:35;;;;;;;;;;;10.30;99.90;;;;;;5044246;28;19943;-75
2023/04/24 08:56:01;;;;;;;;;;;10.30;99.90;;;;;;5065624;28;19928;-75
2023/04/24 08:58:27;;;;;;;;;;;10.30;99.90;;;;;;5098378;28;20330;-75
2023/04/24 09:00:56;;;;;;;;;;;10.30;99.90;;;;;;5065822;28;19973;-75
2023/04/24 09:03:22;;;;;;;;;;;10.30;99.90;;;;;;5045819;28;20401;-75
2023/04/24 09:05:49;;;;;;;;;;;10.20;99.90;;;;;;5065186;28;19928;-75
2023/04/24 09:08:15;;;;;;;;;;;10.20;99.90;;;;;;5096949;28;19929;-75
2023/04/24 09:10:41;;;;;;;;;;;10.10;99.90;;;;;;5064815;28;20389;-75
2023/04/24 09:13:09;;;;;;;;;;;10.20;99.90;;;;;;5053868;28;19931;-75
2023/04/24 09:15:35;;;;;;;;;;;10.20;99.90;;;;;;5050956;28;19989;-75
2023/04/24 09:18:00;;;;;;;;;;;10.20;99.90;;;;;;5082950;28;20544;-75
2023/04/24 09:20:26;;;;;;;;;;;10.20;99.90;;;;;;5078266;28;19931;-75
2023/04/24 09:22:56;;;;;;;;;;;10.10;99.90;;;;;;5083058;28;19932;-75
2023/04/24 09:25:21;;;;;;;;;;;10.10;99.90;;;;;;5088005;28;20178;-74
2023/04/24 09:27:47;;;;;;;;;;;10.10;99.90;;;;;;5085900;28;20011;-75
2023/04/24 09:30:14;;;;;;;;;;;10.00;99.90;;;;;;5088395;28;19939;-77
2023/04/24 09:32:39;;;;;;;;;;;9.90;99.90;;;;;;5067530;28;19932;-77
2023/04/24 09:35:07;;;;;;;;;;;9.90;99.90;;;;;;5088010;28;19924;-77
2023/04/24 09:37:41;;;;;;;;;;;9.90;99.90;;;;;;5067577;28;19928;-74
2023/04/24 09:40:07;;;;;;;;;;;9.80;99.90;;;;;;5051777;28;19934;-75
2023/04/24 09:42:33;;;;;;;;;;;9.80;99.90;;;;;;5084609;28;19967;-75
2023/04/24 09:44:58;;;;;;;;;;;9.80;99.90;;;;;;5086312;28;19924;-75
2023/04/24 09:47:24;;;;;;;;;;;9.90;99.90;;;;;;5084448;28;19932;-75
2023/04/24 09:49:50;;;;;;;;;;;9.90;99.90;;;;;;5086674;28;20382;-75
2023/04/24 09:52:15;;;;;;;;;;;9.80;99.90;;;;;;5083004;28;19963;-75
2023/04/24 09:54:41;;;;;;;;;;;9.90;99.90;;;;;;5085950;28;19931;-77
2023/04/24 09:57:09;;;;;;;;;;;9.90;99.90;;;;;;5081806;28;19925;-76
2023/04/24 09:59:35;;;;;;;;;;;9.90;99.90;;;;;;5084660;28;19932;-75
2023/04/24 10:02:01;;;;;;;;;;;9.80;99.90;;;;;;5080741;28;19937;-75
2023/04/24 10:04:27;;;;;;;;;;;9.80;99.90;;;;;;5066869;28;19970;-76
2023/04/24 10:06:53;;;;;;;;;;;9.80;99.90;;;;;;5069721;28;20294;-77
2023/04/24 10:09:19;;;;;;;;;;;9.80;99.90;;;;;;5058469;28;19924;-77
2023/04/24 10:11:46;;;;;;;;;;;9.80;99.90;;;;;;5050993;28;19932;-77
2023/04/24 10:14:12;;;;;;;;;;;9.80;99.90;;;;;;5080035;28;19984;-76
2023/04/24 10:16:39;;;;;;;;;;;9.80;99.90;;;;;;5058593;28;19932;-77
2023/04/24 10:19:05;;;;;;;;;;;9.80;99.90;;;;;;5091342;28;19984;-77
2023/04/24 10:21:31;;;;;;;;;;;9.70;99.90;;;;;;5089494;28;20003;-77
2023/04/24 10:23:57;;;;;;;;;;;9.70;99.90;;;;;;5107172;28;19931;-76
2023/04/24 10:26:23;;;;;;;;;;;9.70;99.90;;;;;;5088593;28;19936;-75
2023/04/24 10:28:49;;;;;;;;;;;9.70;99.90;;;;;;5090462;28;20316;-75
2023/04/24 10:31:15;;;;;;;;;;;9.70;99.90;;;;;;5085360;28;19929;-75
2023/04/24 10:33:41;;;;;;;;;;;9.70;99.90;;;;;;5089860;28;20335;-75
2023/04/24 10:36:08;;;;;;;;;;;9.70;99.90;;;;;;5086616;28;20024;-75
2023/04/24 10:38:35;;;;;;;;;;;9.70;99.90;;;;;;5088612;28;19924;-75
2023/04/24 10:41:15;;;;;;;;;;;9.70;99.90;;;;;;5068450;28;19931;-77
2023/04/24 10:43:42;;;;;;;;;;;9.70;99.90;;;;;;5071579;28;19924;-77
2023/04/24 10:46:09;;;;;;;;;;;9.70;99.90;;;;;;5068125;28;19931;-77
2023/04/24 10:48:35;;;;;;;;;;;9.70;99.90;;;;;;5088779;28;19923;-76
2023/04/24 10:51:01;;;;;;;;;;;9.80;99.90;;;;;;5079679;28;20008;-77
2023/04/24 10:53:28;;;;;;;;;;;9.80;99.90;;;;;;5081303;28;20351;-76
2023/04/24 10:55:57;;;;;;;;;;;9.90;99.90;;;;;;5078281;28;19970;-76
2023/04/24 10:58:23;;;;;;;;;;;9.90;99.90;;;;;;5071661;28;19929;-76
2023/04/24 11:00:59;;;;;;;;;;;10.00;99.90;;;;;;5055797;28;19928;-75
2023/04/24 11:03:29;;;;;;;;;;;10.10;99.90;;;;;;5071868;28;20334;-74
2023/04/24 11:05:57;;;;;;;;;;;10.10;99.90;;;;;;5044753;28;19924;-74
2023/04/24 11:08:27;;;;;;;;;;;10.10;99.90;;;;;;5072575;28;20382;-74
2023/04/24 11:10:59;;;;;;;;;;;10.10;99.90;;;;;;5053796;28;20024;-74
2023/04/24 11:13:25;;;;;;;;;;;10.10;99.90;;;;;;5071766;28;19925;-74
2023/04/24 11:16:10;;;;;;;;;;;10.10;99.90;;;;;;5062465;28;20577;-74
2023/04/24 11:18:40;;;;;;;;;;;10.10;99.90;;;;;;5053955;28;19925;-76
2023/04/24 11:21:12;;;;;;;;;;;10.00;99.90;;;;;;5071006;28;19931;-76
2023/04/24 11:23:38;;;;;;;;;;;10.00;99.90;;;;;;5072672;28;20385;-76
2023/04/24 11:26:11;;;;;;;;;;;10.00;99.90;;;;;;5054585;28;19932;-74
2023/04/24 11:28:37;;;;;;;;;;;10.10;99.90;;;;;;5056101;28;19979;-74
2023/04/24 11:31:21;;;;;;;;;;;10.10;99.90;;;;;;5071855;28;20458;-75
2023/04/24 11:33:47;;;;;;;;;;;10.00;99.90;;;;;;5053249;28;19960;-74
2023/04/24 11:36:12;;;;;;;;;;;10.10;99.90;;;;;;5067359;28;19963;-75
2023/04/24 11:38:38;;;;;;;;;;;10.10;99.90;;;;;;5053989;28;19925;-75
2023/04/24 11:41:05;;;;;;;;;;;10.10;99.90;;;;;;5063076;28;20349;-75
2023/04/24 11:43:31;;;;;;;;;;;10.10;99.90;;;;;;5086307;28;19925;-75
2023/04/24 11:45:59;;;;;;;;;;;10.20;99.90;;;;;;5054610;28;19958;-75
2023/04/24 11:48:25;;;;;;;;;;;10.30;99.90;;;;;;5059182;28;19929;-75
2023/04/24 11:50:51;;;;;;;;;;;10.40;99.90;;;;;;5064066;28;19938;-75
2023/04/24 11:53:18;;;;;;;;;;;10.50;99.90;;;;;;5053762;28;20019;-75
2023/04/24 11:55:44;;;;;;;;;;;10.70;99.90;;;;;;5050413;28;20399;-74
2023/04/24 11:58:09;;;;;;;;;;;10.70;99.90;;;;;;5068586;28;19929;-75
2023/04/24 12:00:35;;;;;;;;;;;10.70;99.90;;;;;;5052490;28;19925;-75
2023/04/24 12:03:07;;;;;;;;;;;10.80;99.90;;;;;;5052988;28;19928;-75
2023/04/24 12:05:34;;;;;;;;;;;10.90;99.90;;;;;;5076088;28;20050;-75
2023/04/24 12:07:59;;;;;;;;;;;11.00;99.90;;;;;;5079950;28;19924;-75
2023/04/24 12:10:26;;;;;;;;;;;11.00;99.90;;;;;;5063606;28;20345;-75
2023/04/24 12:12:52;;;;;;;;;;;11.00;99.90;;;;;;5069788;28;19924;-75
2023/04/24 12:15:18;;;;;;;;;;;11.00;99.90;;;;;;5052710;28;20272;-75
2023/04/24 12:17:44;;;;;;;;;;;11.00;99.90;;;;;;5052085;28;19924;-75
2023/04/24 12:20:11;;;;;;;;;;;11.00;99.90;;;;;;5066349;28;19931;-75
2023/04/24 12:22:44;;;;;;;;;;;10.90;99.90;;;;;;5052429;28;19924;-75
2023/04/24 12:25:10;;;;;;;;;;;10.90;99.90;;;;;;5068418;28;19925;-75
2023/04/24 12:27:35;;;;;;;;;;;10.80;99.90;;;;;;5063520;28;19924;-75
2023/04/24 12:30:02;;;;;;;;;;;10.80;99.90;;;;;;5035418;28;19928;-74
2023/04/24 12:32:28;;;;;;;;;;;10.70;99.90;;;;;;5063493;28;19931;-75
2023/04/24 12:34:54;;;;;;;;;;;10.80;99.90;;;;;;5069150;28;20384;-75
2023/04/24 12:37:19;;;;;;;;;;;10.70;99.90;;;;;;5069134;28;19986;-75
2023/04/24 12:40:08;;;;;;;;;;;10.60;99.90;;;;;;5063628;28;19924;-75
2023/04/24 15:35:25;;;;;;;10.77;3.77;;;9.30;99.90;;;;;;5105554;27;20899;-74
2023/04/24 15:37:51;;;;;;;13.27;4.37;;;9.20;99.90;;;;;;5084177;28;20423;-74
2023/04/24 15:40:17;;;;;;;13.45;4.25;;;9.10;99.90;;;;;;5097140;28;20528;-75
2023/04/24 15:42:43;;;;;;;16.90;4.83;;;9.10;99.90;;;;;;5084607;28;20505;-74
2023/04/24 15:45:09;;;;;;;11.83;4.17;;;9.00;99.90;;;;;;5083542;28;20921;-75
2023/04/24 15:47:35;;;;;;;12.85;4.15;;;9.00;99.90;;;;;;5083262;28;20777;-74
2023/04/24 15:50:02;;;;;;;13.07;4.27;;;9.00;99.90;;;;;;5083619;28;20413;-74
2023/04/24 15:52:27;;;;;;;13.55;4.28;;;9.10;99.90;;;;;;5083362;28;20411;-75
2023/04/24 15:54:53;;;;;;;12.83;3.70;;;9.10;99.90;;;;;;5066460;28;20435;-75
2023/04/24 15:57:20;;;;;;;12.15;3.72;;;9.20;99.90;;;;;;5083594;28;20419;-75
2023/04/24 15:59:46;;;;;;;11.57;3.30;;;9.30;99.90;;;;;;5066718;28;20411;-75
2023/04/24 16:02:17;;;;;;;7.85;2.80;;;9.40;99.90;;;;;;5083172;28;20929;-75
2023/04/24 16:04:47;;;;;;;9.50;3.25;;;9.40;99.90;;;;;;5083341;28;20457;-75
2023/04/24 16:07:14;;;;;;;10.67;3.63;;;9.40;99.90;;;;;;5081105;28;20988;-74
2023/04/24 16:09:40;;;;;;;12.15;3.00;;;9.50;99.90;;;;;;5076783;28;21211;-74
2023/04/24 16:12:06;;;;;;;11.75;3.30;;;9.50;99.90;;;;;;5082113;28;20518;-75
2023/04/24 16:14:32;;;;;;;10.00;3.60;;;9.40;99.90;;;;;;5081028;28;20441;-76
2023/04/24 16:16:57;;;;;;;9.60;3.38;;;9.40;99.90;;;;;;5078644;28;20480;-77
2023/04/24 16:19:23;;;;;;;9.20;3.27;;;9.50;99.90;;;;;;5081100;28;20773;-74
2023/04/24 16:21:49;;;;;;;7.05;2.90;;;9.40;99.90;;;;;;5081920;28;20479;-75
2023/04/24 16:24:14;;;;;;;8.50;3.07;;;9.40;99.90;;;;;;5081851;28;20410;-75
2023/04/24 16:26:40;;;;;;;8.75;3.25;;;9.40;99.90;;;;;;5078148;28;20411;-74
2023/04/24 16:29:05;;;;;;;9.37;2.97;;;9.30;99.90;;;;;;5064475;28;20435;-75
2023/04/24 16:31:32;;;;;;;11.32;3.20;;;9.30;99.90;;;;;;5102012;28;20978;-75
2023/04/24 16:33:57;;;;;;;7.82;2.97;;;9.20;99.90;;;;;;5075170;28;20432;-75
2023/04/24 16:36:23;;;;;;;9.75;3.22;;;9.20;99.90;;;;;;5078580;28;20415;-75
2023/04/24 16:38:49;;;;;;;10.70;3.47;;;9.20;99.90;;;;;;5078059;28;20428;-77
2023/04/24 16:41:14;;;;;;;8.98;2.97;;;9.20;99.90;;;;;;5078222;28;20467;-77
2023/04/24 16:43:40;;;;;;;7.67;2.90;;;9.30;99.90;;;;;;5080333;28;20812;-75
2023/04/24 16:46:06;;;;;;;8.23;2.93;;;9.30;99.90;;;;;;5066709;28;20429;-75
2023/04/24 16:48:32;;;;;;;9.68;3.22;;;9.30;99.90;;;;;;5068394;28;20777;-76
2023/04/24 16:50:57;;;;;;;10.13;2.92;;;9.30;99.90;;;;;;5067655;28;21078;-75
2023/04/24 16:53:23;;;;;;;13.23;3.40;;;9.40;99.90;;;;;;5064057;28;20423;-75
2023/04/24 16:55:49;;;;;;;8.57;2.90;;;9.40;99.90;;;;;;5067906;28;20408;-75